sensor_id;sensor_type;location;lat;lon;timestamp;P1;durP1;ratioP1;P2;durP2;ratioP2
4202;SDS011;2115;51.038;7.006;2023-05-14T00:00:12;628.77;;;180.20;;
4202;SDS011;2115;51.038;7.006;2023-05-14T00:02:40;616.33;;;171.43;;
4202;SDS011;2115;51.038;7.006;2023-05-14T00:05:06;613.17;;;179.63;;
4202;SDS011;2115;51.038;7.006;2023-05-14T00:07:32;615.80;;;179.20;;
4202;SDS011;2115;51.038;7.006;2023-05-14T00:09:57;604.23;;;166.80;;
4202;SDS011;2115;51.038;7.006;2023-05-14T00:12:23;614.03;;;174.83;;
4202;SDS011;2115;51.038;7.006;2023-05-14T00:14:48;621.20;;;183.63;;
4202;SDS011;2115;51.038;7.006;2023-05-14T00:17:14;616.30;;;176.77;;
4202;SDS011;2115;51.038;7.006;2023-05-14T00:19:39;613.73;;;170.13;;
4202;SDS011;2115;51.038;7.006;2023-05-14T00:22:09;606.03;;;167.27;;
4202;SDS011;2115;51.038;7.006;2023-05-14T00:24:34;607.57;;;166.47;;
4202;SDS011;2115;51.038;7.006;2023-05-14T00:27:00;614.50;;;178.67;;
4202;SDS011;2115;51.038;7.006;2023-05-14T00:29:26;608.83;;;170.87;;
4202;SDS011;2115;51.038;7.006;2023-05-14T00:31:52;602.17;;;159.87;;
4202;SDS011;2115;51.038;7.006;2023-05-14T00:34:17;608.30;;;168.27;;
4202;SDS011;2115;51.038;7.006;2023-05-14T00:36:42;605.80;;;168.37;;
4202;SDS011;2115;51.038;7.006;2023-05-14T00:39:08;617.13;;;172.50;;
4202;SDS011;2115;51.038;7.006;2023-05-14T00:41:33;601.57;;;162.90;;
4202;SDS011;2115;51.038;7.006;2023-05-14T00:43:58;601.53;;;165.43;;
4202;SDS011;2115;51.038;7.006;2023-05-14T00:46:24;604.60;;;165.37;;
4202;SDS011;2115;51.038;7.006;2023-05-14T00:48:50;601.13;;;161.57;;
4202;SDS011;2115;51.038;7.006;2023-05-14T00:51:15;604.47;;;169.70;;
4202;SDS011;2115;51.038;7.006;2023-05-14T00:53:42;607.90;;;165.33;;
4202;SDS011;2115;51.038;7.006;2023-05-14T00:56:07;602.43;;;157.80;;
4202;SDS011;2115;51.038;7.006;2023-05-14T00:58:33;603.60;;;160.60;;
4202;SDS011;2115;51.038;7.006;2023-05-14T01:00:58;595.07;;;159.10;;
4202;SDS011;2115;51.038;7.006;2023-05-14T01:03:24;595.37;;;157.27;;
4202;SDS011;2115;51.038;7.006;2023-05-14T01:08:45;604.50;;;164.07;;
4202;SDS011;2115;51.038;7.006;2023-05-14T01:11:21;602.90;;;166.97;;
4202;SDS011;2115;51.038;7.006;2023-05-14T01:16:27;595.80;;;152.90;;
4202;SDS011;2115;51.038;7.006;2023-05-14T01:18:55;599.37;;;161.07;;
4202;SDS011;2115;51.038;7.006;2023-05-14T01:21:37;594.00;;;161.77;;
4202;SDS011;2115;51.038;7.006;2023-05-14T01:24:05;597.63;;;160.07;;
4202;SDS011;2115;51.038;7.006;2023-05-14T01:26:31;595.97;;;158.73;;
4202;SDS011;2115;51.038;7.006;2023-05-14T01:29:01;593.03;;;152.93;;
4202;SDS011;2115;51.038;7.006;2023-05-14T01:31:30;602.47;;;153.20;;
4202;SDS011;2115;51.038;7.006;2023-05-14T01:33:56;600.73;;;159.30;;
4202;SDS011;2115;51.038;7.006;2023-05-14T01:36:22;590.30;;;153.20;;
4202;SDS011;2115;51.038;7.006;2023-05-14T01:38:47;589.40;;;152.43;;
4202;SDS011;2115;51.038;7.006;2023-05-14T01:41:13;589.97;;;154.10;;
4202;SDS011;2115;51.038;7.006;2023-05-14T01:43:39;596.87;;;157.57;;
4202;SDS011;2115;51.038;7.006;2023-05-14T01:46:05;597.73;;;159.47;;
4202;SDS011;2115;51.038;7.006;2023-05-14T01:48:30;593.60;;;154.70;;
4202;SDS011;2115;51.038;7.006;2023-05-14T01:50:56;596.57;;;155.87;;
4202;SDS011;2115;51.038;7.006;2023-05-14T01:53:21;590.40;;;156.17;;
4202;SDS011;2115;51.038;7.006;2023-05-14T01:55:47;599.20;;;158.57;;
4202;SDS011;2115;51.038;7.006;2023-05-14T01:58:12;612.73;;;163.57;;
4202;SDS011;2115;51.038;7.006;2023-05-14T02:00:37;582.67;;;149.87;;
4202;SDS011;2115;51.038;7.006;2023-05-14T02:03:03;596.70;;;156.63;;
4202;SDS011;2115;51.038;7.006;2023-05-14T02:05:28;586.67;;;150.07;;
4202;SDS011;2115;51.038;7.006;2023-05-14T02:07:53;588.10;;;150.53;;
4202;SDS011;2115;51.038;7.006;2023-05-14T02:10:19;593.97;;;154.90;;
4202;SDS011;2115;51.038;7.006;2023-05-14T02:12:44;594.87;;;154.17;;
4202;SDS011;2115;51.038;7.006;2023-05-14T02:15:10;587.40;;;148.80;;
4202;SDS011;2115;51.038;7.006;2023-05-14T02:17:35;592.50;;;151.67;;
4202;SDS011;2115;51.038;7.006;2023-05-14T02:20:02;583.30;;;148.50;;
4202;SDS011;2115;51.038;7.006;2023-05-14T02:22:28;590.57;;;149.40;;
4202;SDS011;2115;51.038;7.006;2023-05-14T02:24:53;594.90;;;157.27;;
4202;SDS011;2115;51.038;7.006;2023-05-14T02:27:19;589.83;;;151.67;;
4202;SDS011;2115;51.038;7.006;2023-05-14T02:29:45;588.30;;;151.60;;
4202;SDS011;2115;51.038;7.006;2023-05-14T02:32:11;585.97;;;153.90;;
4202;SDS011;2115;51.038;7.006;2023-05-14T02:34:36;584.00;;;147.17;;
4202;SDS011;2115;51.038;7.006;2023-05-14T02:37:02;583.13;;;148.60;;
4202;SDS011;2115;51.038;7.006;2023-05-14T02:39:28;591.60;;;154.47;;
4202;SDS011;2115;51.038;7.006;2023-05-14T02:41:53;581.83;;;148.90;;
4202;SDS011;2115;51.038;7.006;2023-05-14T02:44:18;578.87;;;148.17;;
4202;SDS011;2115;51.038;7.006;2023-05-14T02:46:44;588.43;;;151.53;;
4202;SDS011;2115;51.038;7.006;2023-05-14T02:49:09;580.17;;;145.33;;
4202;SDS011;2115;51.038;7.006;2023-05-14T02:51:34;593.70;;;154.80;;
4202;SDS011;2115;51.038;7.006;2023-05-14T02:54:00;579.23;;;145.17;;
4202;SDS011;2115;51.038;7.006;2023-05-14T02:56:25;580.87;;;147.63;;
4202;SDS011;2115;51.038;7.006;2023-05-14T02:58:51;580.43;;;144.57;;
4202;SDS011;2115;51.038;7.006;2023-05-14T03:01:16;577.70;;;147.00;;
4202;SDS011;2115;51.038;7.006;2023-05-14T03:03:42;581.87;;;147.90;;
4202;SDS011;2115;51.038;7.006;2023-05-14T03:06:08;581.07;;;149.47;;
4202;SDS011;2115;51.038;7.006;2023-05-14T03:08:33;579.20;;;148.37;;
4202;SDS011;2115;51.038;7.006;2023-05-14T03:10:59;573.20;;;144.87;;
4202;SDS011;2115;51.038;7.006;2023-05-14T03:13:24;575.17;;;142.57;;
4202;SDS011;2115;51.038;7.006;2023-05-14T03:15:50;577.20;;;143.40;;
4202;SDS011;2115;51.038;7.006;2023-05-14T03:18:18;579.27;;;145.87;;
4202;SDS011;2115;51.038;7.006;2023-05-14T03:20:44;580.13;;;145.23;;
4202;SDS011;2115;51.038;7.006;2023-05-14T03:23:10;579.87;;;146.57;;
4202;SDS011;2115;51.038;7.006;2023-05-14T03:25:35;569.60;;;143.17;;
4202;SDS011;2115;51.038;7.006;2023-05-14T03:28:01;576.37;;;146.37;;
4202;SDS011;2115;51.038;7.006;2023-05-14T03:30:27;578.20;;;146.27;;
4202;SDS011;2115;51.038;7.006;2023-05-14T03:32:52;590.50;;;150.30;;
4202;SDS011;2115;51.038;7.006;2023-05-14T03:35:18;574.70;;;144.80;;
4202;SDS011;2115;51.038;7.006;2023-05-14T03:37:43;579.00;;;148.27;;
4202;SDS011;2115;51.038;7.006;2023-05-14T03:40:09;583.70;;;147.40;;
4202;SDS011;2115;51.038;7.006;2023-05-14T03:42:34;584.20;;;150.00;;
4202;SDS011;2115;51.038;7.006;2023-05-14T03:45:00;583.93;;;147.10;;
4202;SDS011;2115;51.038;7.006;2023-05-14T03:47:25;574.73;;;143.97;;
4202;SDS011;2115;51.038;7.006;2023-05-14T03:49:50;565.17;;;139.27;;
4202;SDS011;2115;51.038;7.006;2023-05-14T03:52:16;565.17;;;140.40;;
4202;SDS011;2115;51.038;7.006;2023-05-14T03:54:41;564.93;;;137.70;;
4202;SDS011;2115;51.038;7.006;2023-05-14T03:57:07;572.47;;;141.00;;
4202;SDS011;2115;51.038;7.006;2023-05-14T03:59:32;561.70;;;139.47;;
4202;SDS011;2115;51.038;7.006;2023-05-14T04:01:57;569.63;;;143.70;;
4202;SDS011;2115;51.038;7.006;2023-05-14T04:04:23;566.87;;;140.80;;
4202;SDS011;2115;51.038;7.006;2023-05-14T04:06:48;568.70;;;141.57;;
4202;SDS011;2115;51.038;7.006;2023-05-14T04:09:13;568.53;;;141.00;;
4202;SDS011;2115;51.038;7.006;2023-05-14T04:11:39;565.17;;;141.97;;
4202;SDS011;2115;51.038;7.006;2023-05-14T04:14:04;564.60;;;141.30;;
4202;SDS011;2115;51.038;7.006;2023-05-14T04:16:30;578.00;;;144.47;;
4202;SDS011;2115;51.038;7.006;2023-05-14T04:18:55;570.50;;;142.43;;
4202;SDS011;2115;51.038;7.006;2023-05-14T04:21:21;572.40;;;145.37;;
4202;SDS011;2115;51.038;7.006;2023-05-14T04:23:46;564.67;;;141.77;;
4202;SDS011;2115;51.038;7.006;2023-05-14T04:26:12;576.23;;;145.23;;
4202;SDS011;2115;51.038;7.006;2023-05-14T04:28:37;567.30;;;140.50;;
4202;SDS011;2115;51.038;7.006;2023-05-14T04:31:02;574.40;;;142.23;;
4202;SDS011;2115;51.038;7.006;2023-05-14T04:33:28;572.20;;;139.77;;
4202;SDS011;2115;51.038;7.006;2023-05-14T04:35:53;567.70;;;142.80;;
4202;SDS011;2115;51.038;7.006;2023-05-14T04:38:19;565.33;;;141.90;;
4202;SDS011;2115;51.038;7.006;2023-05-14T04:40:44;572.60;;;143.40;;
4202;SDS011;2115;51.038;7.006;2023-05-14T04:43:09;576.10;;;147.20;;
4202;SDS011;2115;51.038;7.006;2023-05-14T04:45:35;568.93;;;143.07;;
4202;SDS011;2115;51.038;7.006;2023-05-14T04:48:01;573.37;;;143.57;;
4202;SDS011;2115;51.038;7.006;2023-05-14T04:50:27;567.90;;;143.30;;
4202;SDS011;2115;51.038;7.006;2023-05-14T04:52:53;573.80;;;147.47;;
4202;SDS011;2115;51.038;7.006;2023-05-14T04:55:19;578.37;;;149.57;;
4202;SDS011;2115;51.038;7.006;2023-05-14T04:57:45;583.93;;;151.33;;
4202;SDS011;2115;51.038;7.006;2023-05-14T05:00:10;570.93;;;143.27;;
4202;SDS011;2115;51.038;7.006;2023-05-14T05:02:37;581.77;;;149.93;;
4202;SDS011;2115;51.038;7.006;2023-05-14T05:05:02;567.20;;;140.87;;
4202;SDS011;2115;51.038;7.006;2023-05-14T05:07:28;575.27;;;147.10;;
4202;SDS011;2115;51.038;7.006;2023-05-14T05:09:53;577.90;;;148.10;;
4202;SDS011;2115;51.038;7.006;2023-05-14T05:12:19;581.17;;;148.70;;
4202;SDS011;2115;51.038;7.006;2023-05-14T05:14:45;578.43;;;147.67;;
4202;SDS011;2115;51.038;7.006;2023-05-14T05:17:10;578.53;;;152.97;;
4202;SDS011;2115;51.038;7.006;2023-05-14T05:19:36;575.37;;;148.27;;
4202;SDS011;2115;51.038;7.006;2023-05-14T05:22:01;574.93;;;148.67;;
4202;SDS011;2115;51.038;7.006;2023-05-14T05:24:27;591.13;;;154.00;;
4202;SDS011;2115;51.038;7.006;2023-05-14T05:26:52;586.93;;;154.57;;
4202;SDS011;2115;51.038;7.006;2023-05-14T05:29:19;593.13;;;157.90;;
4202;SDS011;2115;51.038;7.006;2023-05-14T05:31:45;589.40;;;153.87;;
4202;SDS011;2115;51.038;7.006;2023-05-14T05:34:10;590.83;;;154.00;;
4202;SDS011;2115;51.038;7.006;2023-05-14T05:36:36;594.43;;;158.10;;
4202;SDS011;2115;51.038;7.006;2023-05-14T05:39:01;587.80;;;154.20;;
4202;SDS011;2115;51.038;7.006;2023-05-14T05:41:26;589.30;;;157.83;;
4202;SDS011;2115;51.038;7.006;2023-05-14T05:43:53;583.63;;;155.07;;
4202;SDS011;2115;51.038;7.006;2023-05-14T05:46:19;590.23;;;157.80;;
4202;SDS011;2115;51.038;7.006;2023-05-14T05:48:45;607.03;;;169.63;;
4202;SDS011;2115;51.038;7.006;2023-05-14T05:51:10;594.27;;;161.97;;
4202;SDS011;2115;51.038;7.006;2023-05-14T05:53:36;594.37;;;163.97;;
4202;SDS011;2115;51.038;7.006;2023-05-14T05:56:01;594.40;;;165.20;;
4202;SDS011;2115;51.038;7.006;2023-05-14T05:58:26;607.83;;;169.70;;
4202;SDS011;2115;51.038;7.006;2023-05-14T06:00:52;596.27;;;159.03;;
4202;SDS011;2115;51.038;7.006;2023-05-14T06:03:17;601.90;;;165.07;;
4202;SDS011;2115;51.038;7.006;2023-05-14T06:05:42;624.30;;;180.27;;
4202;SDS011;2115;51.038;7.006;2023-05-14T06:08:08;611.70;;;172.60;;
4202;SDS011;2115;51.038;7.006;2023-05-14T06:10:33;607.07;;;180.93;;
4202;SDS011;2115;51.038;7.006;2023-05-14T06:13:00;611.20;;;176.43;;
4202;SDS011;2115;51.038;7.006;2023-05-14T06:15:25;618.30;;;175.67;;
4202;SDS011;2115;51.038;7.006;2023-05-14T06:17:51;606.27;;;177.70;;
4202;SDS011;2115;51.038;7.006;2023-05-14T06:20:16;603.83;;;171.63;;
4202;SDS011;2115;51.038;7.006;2023-05-14T06:22:45;623.03;;;183.73;;
4202;SDS011;2115;51.038;7.006;2023-05-14T06:25:10;616.77;;;188.77;;
4202;SDS011;2115;51.038;7.006;2023-05-14T06:27:36;610.43;;;175.73;;
4202;SDS011;2115;51.038;7.006;2023-05-14T06:30:07;606.57;;;171.43;;
4202;SDS011;2115;51.038;7.006;2023-05-14T06:32:37;616.30;;;184.73;;
4202;SDS011;2115;51.038;7.006;2023-05-14T06:35:03;615.07;;;177.70;;
4202;SDS011;2115;51.038;7.006;2023-05-14T06:37:29;615.70;;;181.53;;
4202;SDS011;2115;51.038;7.006;2023-05-14T06:39:54;612.07;;;180.70;;
4202;SDS011;2115;51.038;7.006;2023-05-14T06:42:20;615.60;;;175.87;;
4202;SDS011;2115;51.038;7.006;2023-05-14T06:44:45;616.67;;;186.00;;
4202;SDS011;2115;51.038;7.006;2023-05-14T06:47:10;620.80;;;184.03;;
4202;SDS011;2115;51.038;7.006;2023-05-14T06:49:36;629.63;;;198.97;;
4202;SDS011;2115;51.038;7.006;2023-05-14T06:52:01;619.30;;;188.07;;
4202;SDS011;2115;51.038;7.006;2023-05-14T06:54:27;630.73;;;188.60;;
4202;SDS011;2115;51.038;7.006;2023-05-14T06:56:53;627.03;;;195.23;;
4202;SDS011;2115;51.038;7.006;2023-05-14T06:59:18;629.10;;;190.17;;
4202;SDS011;2115;51.038;7.006;2023-05-14T07:01:43;628.47;;;196.87;;
4202;SDS011;2115;51.038;7.006;2023-05-14T07:04:09;634.40;;;200.20;;
4202;SDS011;2115;51.038;7.006;2023-05-14T07:06:34;632.80;;;198.53;;
4202;SDS011;2115;51.038;7.006;2023-05-14T07:09:00;634.60;;;202.30;;
4202;SDS011;2115;51.038;7.006;2023-05-14T07:11:25;635.40;;;208.37;;
4202;SDS011;2115;51.038;7.006;2023-05-14T07:13:51;640.90;;;214.97;;
4202;SDS011;2115;51.038;7.006;2023-05-14T07:16:16;642.40;;;216.77;;
4202;SDS011;2115;51.038;7.006;2023-05-14T07:18:50;648.67;;;213.20;;
4202;SDS011;2115;51.038;7.006;2023-05-14T07:21:16;647.13;;;231.00;;
4202;SDS011;2115;51.038;7.006;2023-05-14T07:23:45;645.57;;;210.67;;
4202;SDS011;2115;51.038;7.006;2023-05-14T07:26:10;647.93;;;220.60;;
4202;SDS011;2115;51.038;7.006;2023-05-14T07:28:36;653.10;;;219.50;;
4202;SDS011;2115;51.038;7.006;2023-05-14T07:31:01;664.13;;;235.17;;
4202;SDS011;2115;51.038;7.006;2023-05-14T07:33:32;656.10;;;236.77;;
4202;SDS011;2115;51.038;7.006;2023-05-14T07:35:58;661.33;;;228.83;;
4202;SDS011;2115;51.038;7.006;2023-05-14T07:38:23;676.43;;;249.10;;
4202;SDS011;2115;51.038;7.006;2023-05-14T07:40:48;660.43;;;241.97;;
4202;SDS011;2115;51.038;7.006;2023-05-14T07:43:14;663.27;;;246.93;;
4202;SDS011;2115;51.038;7.006;2023-05-14T07:45:39;670.40;;;253.63;;
4202;SDS011;2115;51.038;7.006;2023-05-14T07:48:04;675.97;;;260.17;;
4202;SDS011;2115;51.038;7.006;2023-05-14T07:50:30;673.47;;;252.07;;
4202;SDS011;2115;51.038;7.006;2023-05-14T07:52:55;667.27;;;263.40;;
4202;SDS011;2115;51.038;7.006;2023-05-14T07:55:21;671.50;;;261.80;;
4202;SDS011;2115;51.038;7.006;2023-05-14T07:57:46;672.87;;;266.73;;
4202;SDS011;2115;51.038;7.006;2023-05-14T08:00:12;684.60;;;275.17;;
4202;SDS011;2115;51.038;7.006;2023-05-14T08:02:38;678.67;;;262.10;;
4202;SDS011;2115;51.038;7.006;2023-05-14T08:05:03;673.70;;;264.27;;
4202;SDS011;2115;51.038;7.006;2023-05-14T08:07:29;677.33;;;274.37;;
4202;SDS011;2115;51.038;7.006;2023-05-14T08:09:54;687.97;;;289.73;;
4202;SDS011;2115;51.038;7.006;2023-05-14T08:12:20;677.93;;;269.10;;
4202;SDS011;2115;51.038;7.006;2023-05-14T08:14:45;682.37;;;289.87;;
4202;SDS011;2115;51.038;7.006;2023-05-14T08:17:11;675.13;;;275.50;;
4202;SDS011;2115;51.038;7.006;2023-05-14T08:19:36;684.53;;;294.57;;
4202;SDS011;2115;51.038;7.006;2023-05-14T08:22:01;684.23;;;285.67;;
4202;SDS011;2115;51.038;7.006;2023-05-14T08:24:27;686.47;;;311.47;;
4202;SDS011;2115;51.038;7.006;2023-05-14T08:26:53;692.50;;;315.30;;
4202;SDS011;2115;51.038;7.006;2023-05-14T08:29:19;690.53;;;313.17;;
4202;SDS011;2115;51.038;7.006;2023-05-14T08:31:45;709.87;;;314.53;;
4202;SDS011;2115;51.038;7.006;2023-05-14T08:34:11;688.13;;;307.63;;
4202;SDS011;2115;51.038;7.006;2023-05-14T08:36:37;685.70;;;299.23;;
4202;SDS011;2115;51.038;7.006;2023-05-14T08:39:02;692.47;;;315.53;;
4202;SDS011;2115;51.038;7.006;2023-05-14T08:41:28;693.50;;;304.37;;
4202;SDS011;2115;51.038;7.006;2023-05-14T08:44:10;691.90;;;340.23;;
4202;SDS011;2115;51.038;7.006;2023-05-14T08:46:37;680.10;;;291.43;;
4202;SDS011;2115;51.038;7.006;2023-05-14T08:51:35;686.47;;;316.60;;
4202;SDS011;2115;51.038;7.006;2023-05-14T08:54:01;689.17;;;306.77;;
4202;SDS011;2115;51.038;7.006;2023-05-14T08:56:27;685.10;;;302.20;;
4202;SDS011;2115;51.038;7.006;2023-05-14T08:58:55;689.97;;;314.80;;
4202;SDS011;2115;51.038;7.006;2023-05-14T09:01:20;697.20;;;320.73;;
4202;SDS011;2115;51.038;7.006;2023-05-14T09:03:46;697.77;;;326.57;;
4202;SDS011;2115;51.038;7.006;2023-05-14T09:06:11;703.37;;;353.83;;
4202;SDS011;2115;51.038;7.006;2023-05-14T09:08:38;700.67;;;343.67;;
4202;SDS011;2115;51.038;7.006;2023-05-14T09:11:04;701.50;;;348.67;;
4202;SDS011;2115;51.038;7.006;2023-05-14T09:13:29;716.67;;;371.73;;
4202;SDS011;2115;51.038;7.006;2023-05-14T09:15:55;703.20;;;341.97;;
4202;SDS011;2115;51.038;7.006;2023-05-14T09:18:21;707.63;;;345.67;;
4202;SDS011;2115;51.038;7.006;2023-05-14T09:20:46;702.53;;;355.47;;
4202;SDS011;2115;51.038;7.006;2023-05-14T09:23:12;708.23;;;370.77;;
4202;SDS011;2115;51.038;7.006;2023-05-14T09:25:37;702.47;;;351.00;;
4202;SDS011;2115;51.038;7.006;2023-05-14T09:28:07;708.17;;;359.63;;
4202;SDS011;2115;51.038;7.006;2023-05-14T09:30:33;707.80;;;382.43;;
4202;SDS011;2115;51.038;7.006;2023-05-14T09:33:01;718.17;;;407.00;;
4202;SDS011;2115;51.038;7.006;2023-05-14T09:35:28;730.20;;;398.47;;
4202;SDS011;2115;51.038;7.006;2023-05-14T09:37:54;707.63;;;373.80;;
4202;SDS011;2115;51.038;7.006;2023-05-14T09:40:20;719.23;;;386.50;;
4202;SDS011;2115;51.038;7.006;2023-05-14T09:42:46;727.07;;;414.40;;
4202;SDS011;2115;51.038;7.006;2023-05-14T09:45:14;717.13;;;410.87;;
4202;SDS011;2115;51.038;7.006;2023-05-14T09:47:40;729.10;;;413.83;;
4202;SDS011;2115;51.038;7.006;2023-05-14T09:50:06;726.47;;;423.20;;
4202;SDS011;2115;51.038;7.006;2023-05-14T09:52:32;725.40;;;430.00;;
4202;SDS011;2115;51.038;7.006;2023-05-14T09:54:59;717.77;;;425.43;;
4202;SDS011;2115;51.038;7.006;2023-05-14T09:57:24;736.70;;;440.10;;
4202;SDS011;2115;51.038;7.006;2023-05-14T09:59:51;723.50;;;430.10;;
4202;SDS011;2115;51.038;7.006;2023-05-14T10:02:23;731.10;;;437.73;;
4202;SDS011;2115;51.038;7.006;2023-05-14T10:04:52;731.23;;;464.90;;
4202;SDS011;2115;51.038;7.006;2023-05-14T10:07:20;727.83;;;431.60;;
4202;SDS011;2115;51.038;7.006;2023-05-14T10:09:47;736.00;;;435.83;;
4202;SDS011;2115;51.038;7.006;2023-05-14T10:12:12;748.13;;;476.17;;
4202;SDS011;2115;51.038;7.006;2023-05-14T10:14:42;732.83;;;454.90;;
4202;SDS011;2115;51.038;7.006;2023-05-14T10:17:13;726.73;;;460.73;;
4202;SDS011;2115;51.038;7.006;2023-05-14T10:19:42;739.47;;;456.80;;
4202;SDS011;2115;51.038;7.006;2023-05-14T10:22:12;738.57;;;476.27;;
4202;SDS011;2115;51.038;7.006;2023-05-14T10:24:39;748.43;;;487.33;;
4202;SDS011;2115;51.038;7.006;2023-05-14T10:27:05;745.63;;;495.10;;
4202;SDS011;2115;51.038;7.006;2023-05-14T10:29:32;742.00;;;503.13;;
4202;SDS011;2115;51.038;7.006;2023-05-14T10:31:58;748.57;;;541.87;;
4202;SDS011;2115;51.038;7.006;2023-05-14T10:37:11;751.50;;;533.90;;
4202;SDS011;2115;51.038;7.006;2023-05-14T10:42:06;760.33;;;545.50;;
4202;SDS011;2115;51.038;7.006;2023-05-14T10:44:32;758.93;;;554.97;;
4202;SDS011;2115;51.038;7.006;2023-05-14T10:46:59;760.90;;;563.90;;
4202;SDS011;2115;51.038;7.006;2023-05-14T10:49:25;753.77;;;545.10;;
4202;SDS011;2115;51.038;7.006;2023-05-14T10:51:51;758.30;;;565.53;;
4202;SDS011;2115;51.038;7.006;2023-05-14T10:54:17;766.53;;;591.97;;
4202;SDS011;2115;51.038;7.006;2023-05-14T10:56:44;767.10;;;579.27;;
4202;SDS011;2115;51.038;7.006;2023-05-14T10:59:10;767.93;;;584.00;;
4202;SDS011;2115;51.038;7.006;2023-05-14T11:01:35;758.97;;;547.07;;
4202;SDS011;2115;51.038;7.006;2023-05-14T11:04:04;760.57;;;542.63;;
4202;SDS011;2115;51.038;7.006;2023-05-14T11:06:30;756.67;;;555.73;;
4202;SDS011;2115;51.038;7.006;2023-05-14T11:08:56;757.77;;;542.93;;
4202;SDS011;2115;51.038;7.006;2023-05-14T11:11:23;761.33;;;544.97;;
4202;SDS011;2115;51.038;7.006;2023-05-14T11:13:50;752.00;;;533.97;;
4202;SDS011;2115;51.038;7.006;2023-05-14T11:16:17;744.63;;;519.83;;
4202;SDS011;2115;51.038;7.006;2023-05-14T11:18:46;739.80;;;508.67;;
4202;SDS011;2115;51.038;7.006;2023-05-14T11:21:11;757.10;;;537.57;;
4202;SDS011;2115;51.038;7.006;2023-05-14T11:23:37;751.47;;;531.87;;
4202;SDS011;2115;51.038;7.006;2023-05-14T11:26:03;755.27;;;525.60;;
4202;SDS011;2115;51.038;7.006;2023-05-14T11:28:28;767.00;;;592.13;;
4202;SDS011;2115;51.038;7.006;2023-05-14T11:30:54;759.77;;;580.13;;
4202;SDS011;2115;51.038;7.006;2023-05-14T11:33:20;792.97;;;640.70;;
4202;SDS011;2115;51.038;7.006;2023-05-14T11:35:45;790.77;;;659.97;;
4202;SDS011;2115;51.038;7.006;2023-05-14T11:38:13;783.13;;;684.33;;
4202;SDS011;2115;51.038;7.006;2023-05-14T11:40:39;780.90;;;667.83;;
4202;SDS011;2115;51.038;7.006;2023-05-14T11:43:04;783.17;;;668.13;;
4202;SDS011;2115;51.038;7.006;2023-05-14T11:45:30;778.83;;;663.17;;
4202;SDS011;2115;51.038;7.006;2023-05-14T11:47:56;792.27;;;683.97;;
4202;SDS011;2115;51.038;7.006;2023-05-14T11:50:22;778.60;;;676.40;;
4202;SDS011;2115;51.038;7.006;2023-05-14T11:52:47;779.40;;;688.40;;
4202;SDS011;2115;51.038;7.006;2023-05-14T11:55:15;826.17;;;737.77;;
4202;SDS011;2115;51.038;7.006;2023-05-14T11:57:40;822.67;;;735.07;;
4202;SDS011;2115;51.038;7.006;2023-05-14T12:00:07;871.33;;;780.97;;
4202;SDS011;2115;51.038;7.006;2023-05-14T12:02:33;844.80;;;756.50;;
4202;SDS011;2115;51.038;7.006;2023-05-14T12:05:00;858.30;;;767.70;;
4202;SDS011;2115;51.038;7.006;2023-05-14T12:07:27;846.87;;;757.93;;
4202;SDS011;2115;51.038;7.006;2023-05-14T12:09:53;827.07;;;737.33;;
4202;SDS011;2115;51.038;7.006;2023-05-14T12:12:19;839.17;;;747.83;;
4202;SDS011;2115;51.038;7.006;2023-05-14T12:14:46;807.50;;;716.40;;
4202;SDS011;2115;51.038;7.006;2023-05-14T12:17:15;786.13;;;658.13;;
4202;SDS011;2115;51.038;7.006;2023-05-14T12:19:42;784.20;;;661.67;;
4202;SDS011;2115;51.038;7.006;2023-05-14T12:22:09;782.77;;;640.77;;
4202;SDS011;2115;51.038;7.006;2023-05-14T12:24:35;788.43;;;670.03;;
4202;SDS011;2115;51.038;7.006;2023-05-14T12:27:00;785.93;;;656.37;;
4202;SDS011;2115;51.038;7.006;2023-05-14T12:29:27;776.60;;;653.47;;
4202;SDS011;2115;51.038;7.006;2023-05-14T12:31:52;798.97;;;711.10;;
4202;SDS011;2115;51.038;7.006;2023-05-14T12:34:17;773.70;;;674.40;;
4202;SDS011;2115;51.038;7.006;2023-05-14T12:36:43;787.73;;;701.13;;
4202;SDS011;2115;51.038;7.006;2023-05-14T12:39:09;817.80;;;731.03;;
4202;SDS011;2115;51.038;7.006;2023-05-14T12:41:35;884.17;;;794.80;;
4202;SDS011;2115;51.038;7.006;2023-05-14T12:44:01;928.43;;;837.97;;
4202;SDS011;2115;51.038;7.006;2023-05-14T12:46:27;941.70;;;850.80;;
4202;SDS011;2115;51.038;7.006;2023-05-14T12:48:53;926.70;;;836.53;;
4202;SDS011;2115;51.038;7.006;2023-05-14T12:51:18;958.60;;;867.47;;
4202;SDS011;2115;51.038;7.006;2023-05-14T12:53:44;952.87;;;861.77;;
4202;SDS011;2115;51.038;7.006;2023-05-14T12:56:09;1005.83;;;910.17;;
4202;SDS011;2115;51.038;7.006;2023-05-14T12:58:35;986.87;;;886.13;;
4202;SDS011;2115;51.038;7.006;2023-05-14T13:01:00;961.77;;;869.30;;
4202;SDS011;2115;51.038;7.006;2023-05-14T13:03:26;946.77;;;854.30;;
4202;SDS011;2115;51.038;7.006;2023-05-14T13:05:52;909.03;;;818.50;;
4202;SDS011;2115;51.038;7.006;2023-05-14T13:08:17;923.00;;;829.80;;
4202;SDS011;2115;51.038;7.006;2023-05-14T13:10:45;864.87;;;773.77;;
4202;SDS011;2115;51.038;7.006;2023-05-14T13:13:11;886.23;;;794.43;;
4202;SDS011;2115;51.038;7.006;2023-05-14T13:15:39;846.93;;;756.57;;
4202;SDS011;2115;51.038;7.006;2023-05-14T13:18:04;849.63;;;760.07;;
4202;SDS011;2115;51.038;7.006;2023-05-14T13:20:29;880.70;;;789.77;;
4202;SDS011;2115;51.038;7.006;2023-05-14T13:22:58;887.17;;;797.67;;
4202;SDS011;2115;51.038;7.006;2023-05-14T13:25:23;929.80;;;839.00;;
4202;SDS011;2115;51.038;7.006;2023-05-14T13:27:48;920.47;;;830.50;;
4202;SDS011;2115;51.038;7.006;2023-05-14T13:30:18;978.73;;;884.43;;
4202;SDS011;2115;51.038;7.006;2023-05-14T13:32:43;935.77;;;845.47;;
4202;SDS011;2115;51.038;7.006;2023-05-14T13:35:09;977.33;;;884.87;;
4202;SDS011;2115;51.038;7.006;2023-05-14T13:37:35;981.43;;;888.03;;
4202;SDS011;2115;51.038;7.006;2023-05-14T13:40:00;981.40;;;887.63;;
4202;SDS011;2115;51.038;7.006;2023-05-14T13:42:28;958.13;;;866.80;;
4202;SDS011;2115;51.038;7.006;2023-05-14T13:44:53;985.30;;;892.80;;
4202;SDS011;2115;51.038;7.006;2023-05-14T13:47:20;940.57;;;851.37;;
4202;SDS011;2115;51.038;7.006;2023-05-14T13:49:45;996.70;;;904.50;;
4202;SDS011;2115;51.038;7.006;2023-05-14T13:52:11;1002.97;;;909.60;;
4202;SDS011;2115;51.038;7.006;2023-05-14T13:54:36;992.60;;;899.20;;
4202;SDS011;2115;51.038;7.006;2023-05-14T13:57:02;971.73;;;879.63;;
4202;SDS011;2115;51.038;7.006;2023-05-14T13:59:27;945.70;;;854.10;;
4202;SDS011;2115;51.038;7.006;2023-05-14T14:01:52;933.57;;;841.67;;
4202;SDS011;2115;51.038;7.006;2023-05-14T14:04:18;931.90;;;839.43;;
4202;SDS011;2115;51.038;7.006;2023-05-14T14:06:44;893.33;;;802.37;;
4202;SDS011;2115;51.038;7.006;2023-05-14T14:09:09;888.60;;;795.60;;
4202;SDS011;2115;51.038;7.006;2023-05-14T14:11:34;908.47;;;815.07;;
4202;SDS011;2115;51.038;7.006;2023-05-14T14:14:00;865.23;;;774.13;;
4202;SDS011;2115;51.038;7.006;2023-05-14T14:16:25;898.40;;;803.93;;
4202;SDS011;2115;51.038;7.006;2023-05-14T14:18:52;881.67;;;789.57;;
4202;SDS011;2115;51.038;7.006;2023-05-14T14:21:17;893.93;;;801.83;;
4202;SDS011;2115;51.038;7.006;2023-05-14T14:23:45;884.40;;;793.13;;
4202;SDS011;2115;51.038;7.006;2023-05-14T14:26:11;878.40;;;789.93;;